createdAt,value
2022-12-24T00:03:24.918Z,2.80
2022-12-24T00:08:28.488Z,2.80
2022-12-24T00:13:32.103Z,2.90
2022-12-24T00:18:38.692Z,2.80
2022-12-24T00:23:47.143Z,2.90
2022-12-24T00:28:50.828Z,2.80
2022-12-24T00:33:54.404Z,2.80
2022-12-24T00:38:58.055Z,2.80
2022-12-24T00:44:06.284Z,2.80
2022-12-24T00:49:11.783Z,2.80
2022-12-24T00:54:15.561Z,2.80
2022-12-24T00:59:19.002Z,2.70
2022-12-24T01:04:40.746Z,2.70
2022-12-24T01:09:44.278Z,2.60
2022-12-24T01:14:47.601Z,2.60
2022-12-24T01:19:51.422Z,2.60
2022-12-24T01:24:54.606Z,2.60
2022-12-24T01:29:58.744Z,2.60
2022-12-24T01:35:02.236Z,2.60
2022-12-24T01:40:28.892Z,2.60
2022-12-24T01:45:38.245Z,2.50
2022-12-24T01:50:41.729Z,2.40
2022-12-24T01:55:46.884Z,2.30
2022-12-24T02:00:50.424Z,2.30
2022-12-24T02:05:56.420Z,2.30
2022-12-24T02:11:00.031Z,2.30
2022-12-24T02:16:27.827Z,2.40
2022-12-24T02:21:33.733Z,2.40
2022-12-24T02:27:00.044Z,2.50
2022-12-24T02:32:09.622Z,2.50
2022-12-24T02:37:26.805Z,2.50
2022-12-24T02:42:38.829Z,2.50
2022-12-24T02:47:44.342Z,2.50
2022-12-24T02:52:48.701Z,2.60
2022-12-24T02:58:22.596Z,2.60
2022-12-24T03:04:02.397Z,2.60
2022-12-24T03:09:34.229Z,2.70
2022-12-24T03:14:40.053Z,2.70
2022-12-24T03:19:43.783Z,2.60
2022-12-24T03:24:47.087Z,2.70
2022-12-24T03:29:50.304Z,2.70
2022-12-24T03:34:53.564Z,2.70
2022-12-24T03:39:57.002Z,2.70
2022-12-24T03:45:00.596Z,2.70
2022-12-24T03:50:04.182Z,2.70
2022-12-24T03:55:08.064Z,2.70
2022-12-24T04:00:11.742Z,2.70
2022-12-24T04:05:21.131Z,2.80
2022-12-24T04:10:24.566Z,2.80
2022-12-24T04:15:28.028Z,2.70
2022-12-24T04:20:31.526Z,2.80
2022-12-24T04:25:35.562Z,2.80
2022-12-24T04:30:42.981Z,2.80
2022-12-24T04:35:46.402Z,2.70
2022-12-24T04:40:49.850Z,2.70
2022-12-24T04:45:53.379Z,2.70
2022-12-24T04:50:57.088Z,2.60
2022-12-24T04:56:00.805Z,2.50
2022-12-24T05:01:09.253Z,2.50
2022-12-24T05:06:17.678Z,2.50
2022-12-24T05:11:21.137Z,2.40
2022-12-24T05:16:25.252Z,2.20
2022-12-24T05:21:28.567Z,2.20
2022-12-24T05:26:34.639Z,2.10
2022-12-24T05:31:40.663Z,2.00
2022-12-24T05:36:44.850Z,1.90
2022-12-24T05:41:48.614Z,1.80
2022-12-24T05:46:52.509Z,1.70
2022-12-24T05:51:55.685Z,1.70
2022-12-24T05:56:59.112Z,1.60
2022-12-24T06:02:02.664Z,1.50
2022-12-24T06:07:06.197Z,1.50
2022-12-24T06:12:09.737Z,1.40
2022-12-24T06:17:13.170Z,1.40
2022-12-24T06:22:16.828Z,1.30
2022-12-24T06:27:20.214Z,1.30
2022-12-24T06:32:23.496Z,1.30
2022-12-24T06:37:26.855Z,1.20
2022-12-24T06:42:30.059Z,1.20
2022-12-24T06:47:33.458Z,1.10
2022-12-24T06:52:37.202Z,1.10
2022-12-24T06:57:41.103Z,1.10
2022-12-24T07:02:45.114Z,1.20
2022-12-24T07:07:49.049Z,1.20
2022-12-24T07:12:52.256Z,1.20
2022-12-24T07:17:55.666Z,1.20
2022-12-24T07:22:58.833Z,1.20
2022-12-24T07:28:02.045Z,1.20
2022-12-24T07:33:05.326Z,1.20
2022-12-24T07:38:10.293Z,1.20
2022-12-24T07:43:14.417Z,1.20
2022-12-24T07:48:17.690Z,1.20
2022-12-24T07:53:21.286Z,1.20
2022-12-24T07:58:25.562Z,1.30
2022-12-24T08:03:29.601Z,1.30
2022-12-24T08:08:33.136Z,1.40
2022-12-24T08:13:36.616Z,1.30
2022-12-24T08:18:39.905Z,1.40
2022-12-24T08:23:43.405Z,1.40
2022-12-24T08:28:46.893Z,1.40
2022-12-24T08:33:50.071Z,1.50
2022-12-24T08:38:53.343Z,1.50
2022-12-24T08:43:56.578Z,1.40
2022-12-24T08:49:00.016Z,1.50
2022-12-24T08:54:03.602Z,1.50
2022-12-24T08:59:06.887Z,1.40
2022-12-24T09:04:10.349Z,1.40
2022-12-24T09:09:14.379Z,1.40
2022-12-24T09:14:17.663Z,1.40
2022-12-24T09:19:28.180Z,1.40
2022-12-24T09:24:35.967Z,1.40
2022-12-24T09:29:41.653Z,1.40
2022-12-24T09:34:45.708Z,1.40
2022-12-24T09:39:49.427Z,1.50
2022-12-24T09:45:07.215Z,1.50
2022-12-24T09:51:27.405Z,1.70
2022-12-24T09:56:50.094Z,1.70
2022-12-24T10:01:56.270Z,1.70
2022-12-24T10:07:34.281Z,1.70
2022-12-24T10:13:08.741Z,1.70
2022-12-24T10:18:35.613Z,1.80
2022-12-24T10:24:03.467Z,1.80
2022-12-24T10:29:26.857Z,1.90
2022-12-24T10:34:35.180Z,1.90
2022-12-24T10:39:39.006Z,1.90
2022-12-24T10:44:42.436Z,1.90
2022-12-24T10:50:07.952Z,1.90
2022-12-24T10:55:20.845Z,2.00
2022-12-24T11:00:28.601Z,2.00
2022-12-24T11:05:37.836Z,2.00
2022-12-24T11:10:45.557Z,2.00
2022-12-24T11:15:53.148Z,2.10
2022-12-24T11:21:00.193Z,2.10
2022-12-24T11:26:04.035Z,2.20
2022-12-24T11:31:19.978Z,2.20
2022-12-24T11:36:26.953Z,2.30
2022-12-24T11:41:38.003Z,2.30
2022-12-24T11:46:46.773Z,2.40
2022-12-24T11:52:12.798Z,2.50
2022-12-24T11:57:21.462Z,2.50
2022-12-24T12:02:31.088Z,2.60
2022-12-24T12:07:37.578Z,2.60
2022-12-24T12:12:55.553Z,2.60
2022-12-24T12:18:16.683Z,2.60
2022-12-24T12:23:39.021Z,2.70
2022-12-24T12:28:46.755Z,2.70
2022-12-24T12:33:57.728Z,2.80
2022-12-24T12:39:02.323Z,2.70
2022-12-24T12:44:25.913Z,2.70
2022-12-24T12:49:53.433Z,2.70
2022-12-24T12:55:32.114Z,2.70
2022-12-24T13:00:41.581Z,2.60
2022-12-24T13:06:26.863Z,2.60
2022-12-24T13:11:55.224Z,2.50
2022-12-24T13:17:41.420Z,2.40
2022-12-24T13:22:59.429Z,2.40
2022-12-24T13:28:21.183Z,2.40
2022-12-24T13:33:40.095Z,2.30
2022-12-24T13:38:53.104Z,2.30
2022-12-24T13:44:18.154Z,2.30
2022-12-24T13:49:36.674Z,2.10
2022-12-24T13:55:01.038Z,2.00
2022-12-24T14:00:22.294Z,1.90
2022-12-24T14:05:36.496Z,1.80
2022-12-24T14:10:56.803Z,1.80
2022-12-24T14:16:05.398Z,1.70
2022-12-24T14:21:22.966Z,1.70
2022-12-24T14:26:36.784Z,1.60
2022-12-24T14:31:59.070Z,1.60
2022-12-24T14:37:05.421Z,1.60
2022-12-24T14:42:28.096Z,1.60
2022-12-24T14:47:59.373Z,1.50
2022-12-24T14:53:38.124Z,1.50
2022-12-24T14:58:43.153Z,1.50
2022-12-24T15:03:48.116Z,1.50
2022-12-24T15:08:52.839Z,1.40
2022-12-24T15:14:04.727Z,1.50
2022-12-24T15:19:23.009Z,1.40
2022-12-24T15:24:32.826Z,1.40
2022-12-24T15:29:45.523Z,1.40
2022-12-24T15:34:51.032Z,1.30
2022-12-24T15:40:11.691Z,1.30
2022-12-24T15:45:28.960Z,1.40
2022-12-24T15:50:35.357Z,1.40
2022-12-24T15:55:46.534Z,1.30
2022-12-24T16:01:05.222Z,1.30
2022-12-24T16:06:12.114Z,1.30
2022-12-24T16:11:24.311Z,1.30
2022-12-24T16:16:37.670Z,1.30
2022-12-24T16:21:43.144Z,1.20
2022-12-24T16:26:47.384Z,1.20
2022-12-24T16:31:58.380Z,1.20
2022-12-24T16:37:02.190Z,1.20
2022-12-24T16:42:24.553Z,1.20
2022-12-24T16:47:41.799Z,1.20
2022-12-24T16:52:46.139Z,1.10
2022-12-24T16:57:49.492Z,1.10
2022-12-24T17:02:54.129Z,1.10
2022-12-24T17:08:01.404Z,1.10
2022-12-24T17:13:05.373Z,1.00
2022-12-24T17:18:08.856Z,1.00
2022-12-24T17:23:12.003Z,1.00
2022-12-24T17:28:18.038Z,1.00
2022-12-24T17:33:21.675Z,0.90
2022-12-24T17:38:24.775Z,0.90
2022-12-24T17:43:28.310Z,0.90
2022-12-24T17:48:31.776Z,0.80
2022-12-24T17:53:40.169Z,0.80
2022-12-24T17:58:45.591Z,0.90
2022-12-24T18:03:52.084Z,1.00
2022-12-24T18:08:56.659Z,1.00
2022-12-24T18:14:01.756Z,1.10
2022-12-24T18:19:06.942Z,1.20
2022-12-24T18:24:12.619Z,1.10
2022-12-24T18:29:17.403Z,1.10
2022-12-24T18:34:20.931Z,1.10
2022-12-24T18:39:24.520Z,1.00
2022-12-24T18:44:27.704Z,1.00
2022-12-24T18:49:31.159Z,1.10
2022-12-24T18:54:34.669Z,1.20
2022-12-24T18:59:39.468Z,1.20
2022-12-24T19:04:43.240Z,1.30
2022-12-24T19:09:48.789Z,1.30
2022-12-24T19:14:52.403Z,1.30
2022-12-24T19:19:56.645Z,1.40
2022-12-24T19:25:00.384Z,1.40
2022-12-24T19:30:05.272Z,1.40
2022-12-24T19:35:09.262Z,1.40
2022-12-24T19:40:13.619Z,1.40
2022-12-24T19:45:17.086Z,1.40
2022-12-24T19:50:21.736Z,1.40
2022-12-24T19:55:25.786Z,1.40
2022-12-24T20:00:29.329Z,1.40
2022-12-24T20:05:32.895Z,1.30
2022-12-24T20:10:45.922Z,1.20
2022-12-24T20:15:49.715Z,1.10
2022-12-24T20:20:53.592Z,1.10
2022-12-24T20:25:59.757Z,1.10
2022-12-24T20:31:14.266Z,1.10
2022-12-24T20:36:21.517Z,1.10
2022-12-24T20:41:27.966Z,1.10
2022-12-24T20:46:31.877Z,1.10
2022-12-24T20:51:35.815Z,1.20
2022-12-24T20:56:40.998Z,1.20
2022-12-24T21:01:45.485Z,1.20
2022-12-24T21:06:48.896Z,1.20
2022-12-24T21:11:53.267Z,1.20
2022-12-24T21:16:58.487Z,1.20
2022-12-24T21:22:03.455Z,1.30
2022-12-24T21:27:08.200Z,1.30
2022-12-24T21:32:13.517Z,1.30
2022-12-24T21:37:17.505Z,1.20
2022-12-24T21:42:21.316Z,1.20
2022-12-24T21:47:26.005Z,1.20
2022-12-24T21:52:30.817Z,1.20
2022-12-24T21:57:54.055Z,1.20
2022-12-24T22:02:59.194Z,1.20
2022-12-24T22:08:23.544Z,1.20
2022-12-24T22:13:29.928Z,1.20
2022-12-24T22:18:34.675Z,1.20
2022-12-24T22:23:42.237Z,1.20
2022-12-24T22:28:46.888Z,1.20
2022-12-24T22:33:50.494Z,1.20
2022-12-24T22:38:54.069Z,1.20
2022-12-24T22:43:58.409Z,1.20
2022-12-24T22:49:03.534Z,1.20
2022-12-24T22:54:07.290Z,1.20
2022-12-24T22:59:14.453Z,1.10
2022-12-24T23:04:17.762Z,1.10
2022-12-24T23:09:21.134Z,1.10
2022-12-24T23:14:43.332Z,1.10
2022-12-24T23:19:46.507Z,1.20
2022-12-24T23:24:49.658Z,1.10
2022-12-24T23:29:52.858Z,1.10
2022-12-24T23:34:56.349Z,1.10
2022-12-24T23:39:59.554Z,1.20
2022-12-24T23:45:02.938Z,1.20
2022-12-24T23:50:06.826Z,1.20
2022-12-24T23:55:10.406Z,1.20
